sensor_id;sensor_type;location;lat;lon;timestamp;P1;durP1;ratioP1;P2;durP2;ratioP2
26824;SDS011;14402;48.178;11.566;2023-01-15T00:17:14;1.4;;;0.8;;
26824;SDS011;14402;48.178;11.566;2023-01-15T00:17:43;1.4;;;0.8;;
26824;SDS011;14402;48.178;11.566;2023-01-15T00:18:13;1.4;;;0.8;;
26824;SDS011;14402;48.178;11.566;2023-01-15T00:18:47;1.2;;;0.8;;
26824;SDS011;14402;48.178;11.566;2023-01-15T00:19:13;1.0;;;0.7;;
26824;SDS011;14402;48.178;11.566;2023-01-15T00:19:43;1.0;;;0.7;;
26824;SDS011;14402;48.178;11.566;2023-01-15T00:20:13;1.0;;;0.7;;
26824;SDS011;14402;48.178;11.566;2023-01-15T00:20:43;1.4;;;0.8;;
26824;SDS011;14402;48.178;11.566;2023-01-15T00:21:13;1.7;;;0.8;;
26824;SDS011;14402;48.178;11.566;2023-01-15T00:21:44;1.7;;;0.8;;
26824;SDS011;14402;48.178;11.566;2023-01-15T00:22:14;1.7;;;0.8;;
26824;SDS011;14402;48.178;11.566;2023-01-15T00:22:44;1.5;;;0.8;;
26824;SDS011;14402;48.178;11.566;2023-01-15T00:23:14;1.3;;;0.8;;
26824;SDS011;14402;48.178;11.566;2023-01-15T01:17:21;1.1;;;0.8;;
26824;SDS011;14402;48.178;11.566;2023-01-15T01:17:50;1.1;;;0.8;;
26824;SDS011;14402;48.178;11.566;2023-01-15T01:18:20;1.1;;;0.8;;
26824;SDS011;14402;48.178;11.566;2023-01-15T01:18:50;1.3;;;0.8;;
26824;SDS011;14402;48.178;11.566;2023-01-15T01:19:21;1.5;;;0.8;;
26824;SDS011;14402;48.178;11.566;2023-01-15T01:19:50;1.5;;;0.8;;
26824;SDS011;14402;48.178;11.566;2023-01-15T01:20:20;1.5;;;0.8;;
26824;SDS011;14402;48.178;11.566;2023-01-15T01:20:50;1.3;;;0.8;;
26824;SDS011;14402;48.178;11.566;2023-01-15T01:21:20;1.1;;;0.8;;
26824;SDS011;14402;48.178;11.566;2023-01-15T01:21:50;1.1;;;0.8;;
26824;SDS011;14402;48.178;11.566;2023-01-15T01:22:20;1.1;;;0.8;;
26824;SDS011;14402;48.178;11.566;2023-01-15T01:22:50;1.0;;;0.8;;
26824;SDS011;14402;48.178;11.566;2023-01-15T01:23:21;1.0;;;0.7;;
26824;SDS011;14402;48.178;11.566;2023-01-15T01:23:50;1.0;;;0.7;;
26824;SDS011;14402;48.178;11.566;2023-01-15T01:24:21;1.0;;;0.7;;
26824;SDS011;14402;48.178;11.566;2023-01-15T01:24:50;1.3;;;0.7;;
26824;SDS011;14402;48.178;11.566;2023-01-15T01:25:20;1.6;;;0.7;;
26824;SDS011;14402;48.178;11.566;2023-01-15T01:25:50;1.6;;;0.7;;
26824;SDS011;14402;48.178;11.566;2023-01-15T01:26:20;1.6;;;0.7;;
26824;SDS011;14402;48.178;11.566;2023-01-15T01:26:50;1.8;;;0.9;;
26824;SDS011;14402;48.178;11.566;2023-01-15T01:27:21;1.9;;;1.0;;
26824;SDS011;14402;48.178;11.566;2023-01-15T01:27:51;1.9;;;1.0;;
26824;SDS011;14402;48.178;11.566;2023-01-15T01:28:21;1.9;;;1.0;;
26824;SDS011;14402;48.178;11.566;2023-01-15T01:28:51;1.6;;;0.9;;
26824;SDS011;14402;48.178;11.566;2023-01-15T01:29:21;1.4;;;0.8;;
26824;SDS011;14402;48.178;11.566;2023-01-15T01:29:51;1.4;;;0.8;;
26824;SDS011;14402;48.178;11.566;2023-01-15T01:30:21;1.4;;;0.8;;
26824;SDS011;14402;48.178;11.566;2023-01-15T01:30:51;1.2;;;0.8;;
26824;SDS011;14402;48.178;11.566;2023-01-15T01:31:21;1.1;;;0.7;;
26824;SDS011;14402;48.178;11.566;2023-01-15T01:31:51;1.1;;;0.7;;
26824;SDS011;14402;48.178;11.566;2023-01-15T01:32:21;1.1;;;0.7;;
26824;SDS011;14402;48.178;11.566;2023-01-15T01:32:51;1.5;;;0.7;;
26824;SDS011;14402;48.178;11.566;2023-01-15T01:33:21;2.0;;;0.7;;
26824;SDS011;14402;48.178;11.566;2023-01-15T01:33:52;2.0;;;0.7;;
26824;SDS011;14402;48.178;11.566;2023-01-15T01:34:21;2.0;;;0.7;;
26824;SDS011;14402;48.178;11.566;2023-01-15T01:34:51;1.5;;;0.6;;
26824;SDS011;14402;48.178;11.566;2023-01-15T01:35:21;1.1;;;0.6;;
26824;SDS011;14402;48.178;11.566;2023-01-15T01:35:51;1.1;;;0.6;;
26824;SDS011;14402;48.178;11.566;2023-01-15T01:36:24;1.1;;;0.6;;
26824;SDS011;14402;48.178;11.566;2023-01-15T01:36:51;1.2;;;0.6;;
26824;SDS011;14402;48.178;11.566;2023-01-15T01:37:22;1.2;;;0.6;;
26824;SDS011;14402;48.178;11.566;2023-01-15T01:37:52;1.2;;;0.6;;
26824;SDS011;14402;48.178;11.566;2023-01-15T01:38:22;1.2;;;0.6;;
26824;SDS011;14402;48.178;11.566;2023-01-15T01:38:52;1.0;;;0.6;;
26824;SDS011;14402;48.178;11.566;2023-01-15T01:39:22;0.9;;;0.6;;
26824;SDS011;14402;48.178;11.566;2023-01-15T01:39:52;0.9;;;0.6;;
26824;SDS011;14402;48.178;11.566;2023-01-15T01:40:22;0.9;;;0.6;;
26824;SDS011;14402;48.178;11.566;2023-01-15T01:40:52;0.9;;;0.6;;
26824;SDS011;14402;48.178;11.566;2023-01-15T01:41:22;1.0;;;0.7;;
26824;SDS011;14402;48.178;11.566;2023-01-15T01:41:52;1.0;;;0.7;;
26824;SDS011;14402;48.178;11.566;2023-01-15T01:42:22;1.0;;;0.7;;
26824;SDS011;14402;48.178;11.566;2023-01-15T01:42:52;1.5;;;0.7;;
26824;SDS011;14402;48.178;11.566;2023-01-15T01:43:23;1.9;;;0.7;;
26824;SDS011;14402;48.178;11.566;2023-01-15T01:43:54;1.9;;;0.7;;
26824;SDS011;14402;48.178;11.566;2023-01-15T01:44:57;1.9;;;0.7;;
26824;SDS011;14402;48.178;11.566;2023-01-15T01:44:59;1.5;;;0.6;;
26824;SDS011;14402;48.178;11.566;2023-01-15T01:45:23;1.2;;;0.6;;
26824;SDS011;14402;48.178;11.566;2023-01-15T01:45:52;1.2;;;0.6;;
26824;SDS011;14402;48.178;11.566;2023-01-15T01:46:23;1.2;;;0.6;;
26824;SDS011;14402;48.178;11.566;2023-01-15T01:46:53;1.2;;;0.6;;
26824;SDS011;14402;48.178;11.566;2023-01-15T01:47:23;1.3;;;0.7;;
26824;SDS011;14402;48.178;11.566;2023-01-15T01:47:53;1.3;;;0.7;;
26824;SDS011;14402;48.178;11.566;2023-01-15T01:48:23;1.3;;;0.7;;
26824;SDS011;14402;48.178;11.566;2023-01-15T01:48:54;1.1;;;0.7;;
26824;SDS011;14402;48.178;11.566;2023-01-15T01:49:23;1.0;;;0.7;;
26824;SDS011;14402;48.178;11.566;2023-01-15T01:49:53;1.0;;;0.7;;
26824;SDS011;14402;48.178;11.566;2023-01-15T01:50:23;1.0;;;0.7;;
26824;SDS011;14402;48.178;11.566;2023-01-15T01:50:53;1.0;;;0.7;;
26824;SDS011;14402;48.178;11.566;2023-01-15T01:51:24;1.0;;;0.7;;
26824;SDS011;14402;48.178;11.566;2023-01-15T01:51:54;1.0;;;0.7;;
26824;SDS011;14402;48.178;11.566;2023-01-15T01:52:24;1.0;;;0.7;;
26824;SDS011;14402;48.178;11.566;2023-01-15T01:52:55;1.2;;;0.6;;
26824;SDS011;14402;48.178;11.566;2023-01-15T01:53:24;1.5;;;0.6;;
26824;SDS011;14402;48.178;11.566;2023-01-15T01:53:53;1.5;;;0.6;;
26824;SDS011;14402;48.178;11.566;2023-01-15T01:54:24;1.5;;;0.6;;
26824;SDS011;14402;48.178;11.566;2023-01-15T01:54:53;1.1;;;0.6;;
26824;SDS011;14402;48.178;11.566;2023-01-15T01:55:24;0.8;;;0.6;;
26824;SDS011;14402;48.178;11.566;2023-01-15T01:55:54;0.8;;;0.6;;
26824;SDS011;14402;48.178;11.566;2023-01-15T01:56:24;0.8;;;0.6;;
26824;SDS011;14402;48.178;11.566;2023-01-15T01:56:54;1.1;;;0.6;;
26824;SDS011;14402;48.178;11.566;2023-01-15T01:57:24;1.4;;;0.7;;
26824;SDS011;14402;48.178;11.566;2023-01-15T01:57:55;1.4;;;0.7;;
26824;SDS011;14402;48.178;11.566;2023-01-15T01:58:25;1.4;;;0.7;;
26824;SDS011;14402;48.178;11.566;2023-01-15T01:58:54;1.1;;;0.6;;
26824;SDS011;14402;48.178;11.566;2023-01-15T01:59:24;0.9;;;0.6;;
26824;SDS011;14402;48.178;11.566;2023-01-15T01:59:54;0.9;;;0.6;;
26824;SDS011;14402;48.178;11.566;2023-01-15T02:00:24;0.9;;;0.6;;
26824;SDS011;14402;48.178;11.566;2023-01-15T02:00:54;1.1;;;0.6;;
26824;SDS011;14402;48.178;11.566;2023-01-15T02:01:24;1.4;;;0.6;;
26824;SDS011;14402;48.178;11.566;2023-01-15T02:01:54;1.4;;;0.6;;
26824;SDS011;14402;48.178;11.566;2023-01-15T02:02:24;1.4;;;0.6;;
26824;SDS011;14402;48.178;11.566;2023-01-15T02:02:54;1.2;;;0.6;;
26824;SDS011;14402;48.178;11.566;2023-01-15T02:03:25;1.0;;;0.6;;
26824;SDS011;14402;48.178;11.566;2023-01-15T02:03:54;1.0;;;0.6;;
26824;SDS011;14402;48.178;11.566;2023-01-15T02:04:25;1.0;;;0.6;;
26824;SDS011;14402;48.178;11.566;2023-01-15T02:04:54;1.2;;;0.6;;
26824;SDS011;14402;48.178;11.566;2023-01-15T02:05:26;1.4;;;0.6;;
26824;SDS011;14402;48.178;11.566;2023-01-15T02:05:55;1.4;;;0.6;;
26824;SDS011;14402;48.178;11.566;2023-01-15T02:06:25;1.4;;;0.6;;
26824;SDS011;14402;48.178;11.566;2023-01-15T02:06:55;1.3;;;0.6;;
26824;SDS011;14402;48.178;11.566;2023-01-15T02:07:25;1.3;;;0.6;;
26824;SDS011;14402;48.178;11.566;2023-01-15T02:07:55;1.3;;;0.6;;
26824;SDS011;14402;48.178;11.566;2023-01-15T02:08:25;1.3;;;0.6;;
26824;SDS011;14402;48.178;11.566;2023-01-15T02:08:55;1.2;;;0.6;;
26824;SDS011;14402;48.178;11.566;2023-01-15T02:09:25;1.2;;;0.6;;
26824;SDS011;14402;48.178;11.566;2023-01-15T02:09:55;1.2;;;0.6;;
26824;SDS011;14402;48.178;11.566;2023-01-15T02:10:25;1.2;;;0.6;;
26824;SDS011;14402;48.178;11.566;2023-01-15T02:10:55;1.0;;;0.6;;
26824;SDS011;14402;48.178;11.566;2023-01-15T02:11:25;0.9;;;0.5;;
26824;SDS011;14402;48.178;11.566;2023-01-15T02:11:56;0.9;;;0.5;;
26824;SDS011;14402;48.178;11.566;2023-01-15T02:12:27;0.9;;;0.5;;
26824;SDS011;14402;48.178;11.566;2023-01-15T02:12:57;1.8;;;0.6;;
26824;SDS011;14402;48.178;11.566;2023-01-15T02:13:26;2.7;;;0.7;;
26824;SDS011;14402;48.178;11.566;2023-01-15T02:13:56;2.7;;;0.7;;
26824;SDS011;14402;48.178;11.566;2023-01-15T02:14:27;2.7;;;0.7;;
26824;SDS011;14402;48.178;11.566;2023-01-15T02:14:58;1.7;;;0.6;;
26824;SDS011;14402;48.178;11.566;2023-01-15T02:15:27;0.6;;;0.4;;
26824;SDS011;14402;48.178;11.566;2023-01-15T02:15:57;0.6;;;0.4;;
26824;SDS011;14402;48.178;11.566;2023-01-15T02:16:27;0.6;;;0.4;;
26824;SDS011;14402;48.178;11.566;2023-01-15T02:16:57;0.8;;;0.4;;
26824;SDS011;14402;48.178;11.566;2023-01-15T02:17:29;0.9;;;0.4;;
26824;SDS011;14402;48.178;11.566;2023-01-15T02:17:59;0.9;;;0.4;;
26824;SDS011;14402;48.178;11.566;2023-01-15T02:18:28;0.9;;;0.4;;
26824;SDS011;14402;48.178;11.566;2023-01-15T02:18:57;1.0;;;0.5;;
26824;SDS011;14402;48.178;11.566;2023-01-15T02:19:29;1.1;;;0.6;;
26824;SDS011;14402;48.178;11.566;2023-01-15T02:20:00;1.1;;;0.6;;
26824;SDS011;14402;48.178;11.566;2023-01-15T02:20:28;1.1;;;0.6;;
26824;SDS011;14402;48.178;11.566;2023-01-15T02:20:57;1.0;;;0.6;;
26824;SDS011;14402;48.178;11.566;2023-01-15T02:21:30;0.9;;;0.5;;
26824;SDS011;14402;48.178;11.566;2023-01-15T02:21:57;0.9;;;0.5;;
26824;SDS011;14402;48.178;11.566;2023-01-15T02:22:28;0.9;;;0.5;;
26824;SDS011;14402;48.178;11.566;2023-01-15T02:23:00;0.9;;;0.5;;
26824;SDS011;14402;48.178;11.566;2023-01-15T02:23:30;0.8;;;0.5;;
26824;SDS011;14402;48.178;11.566;2023-01-15T02:24:00;0.8;;;0.5;;
26824;SDS011;14402;48.178;11.566;2023-01-15T02:24:29;0.8;;;0.5;;
26824;SDS011;14402;48.178;11.566;2023-01-15T02:24:59;0.8;;;0.6;;
26824;SDS011;14402;48.178;11.566;2023-01-15T02:25:27;0.7;;;0.6;;
26824;SDS011;14402;48.178;11.566;2023-01-15T02:26:02;0.7;;;0.6;;
26824;SDS011;14402;48.178;11.566;2023-01-15T02:26:59;0.7;;;0.6;;
26824;SDS011;14402;48.178;11.566;2023-01-15T02:27:01;0.8;;;0.5;;
26824;SDS011;14402;48.178;11.566;2023-01-15T02:27:27;0.8;;;0.4;;
26824;SDS011;14402;48.178;11.566;2023-01-15T02:27:59;0.8;;;0.4;;
26824;SDS011;14402;48.178;11.566;2023-01-15T02:28:27;0.8;;;0.4;;
26824;SDS011;14402;48.178;11.566;2023-01-15T02:28:57;1.0;;;0.6;;
26824;SDS011;14402;48.178;11.566;2023-01-15T02:29:29;1.3;;;0.7;;
26824;SDS011;14402;48.178;11.566;2023-01-15T02:29:57;1.3;;;0.7;;
26824;SDS011;14402;48.178;11.566;2023-01-15T02:30:28;1.3;;;0.7;;
26824;SDS011;14402;48.178;11.566;2023-01-15T02:30:58;1.5;;;0.7;;
26824;SDS011;14402;48.178;11.566;2023-01-15T02:31:28;1.8;;;0.7;;
26824;SDS011;14402;48.178;11.566;2023-01-15T02:31:58;1.8;;;0.7;;
26824;SDS011;14402;48.178;11.566;2023-01-15T02:32:30;1.8;;;0.7;;
26824;SDS011;14402;48.178;11.566;2023-01-15T02:32:58;1.8;;;0.6;;
26824;SDS011;14402;48.178;11.566;2023-01-15T02:33:29;1.8;;;0.6;;
26824;SDS011;14402;48.178;11.566;2023-01-15T02:33:58;1.8;;;0.6;;
26824;SDS011;14402;48.178;11.566;2023-01-15T02:34:28;1.8;;;0.6;;
26824;SDS011;14402;48.178;11.566;2023-01-15T02:35:00;1.3;;;0.6;;
26824;SDS011;14402;48.178;11.566;2023-01-15T02:35:29;0.9;;;0.5;;
26824;SDS011;14402;48.178;11.566;2023-01-15T02:35:58;0.9;;;0.5;;
26824;SDS011;14402;48.178;11.566;2023-01-15T02:36:29;0.9;;;0.5;;
26824;SDS011;14402;48.178;11.566;2023-01-15T02:36:59;1.1;;;0.6;;
26824;SDS011;14402;48.178;11.566;2023-01-15T02:37:29;1.3;;;0.6;;
26824;SDS011;14402;48.178;11.566;2023-01-15T02:37:59;1.3;;;0.6;;
26824;SDS011;14402;48.178;11.566;2023-01-15T02:38:29;1.3;;;0.6;;
26824;SDS011;14402;48.178;11.566;2023-01-15T02:38:59;1.0;;;0.6;;
26824;SDS011;14402;48.178;11.566;2023-01-15T02:39:28;0.7;;;0.5;;
26824;SDS011;14402;48.178;11.566;2023-01-15T02:39:58;0.7;;;0.5;;
26824;SDS011;14402;48.178;11.566;2023-01-15T02:40:28;0.7;;;0.5;;
26824;SDS011;14402;48.178;11.566;2023-01-15T02:40:59;0.9;;;0.5;;
26824;SDS011;14402;48.178;11.566;2023-01-15T02:41:29;1.1;;;0.5;;
26824;SDS011;14402;48.178;11.566;2023-01-15T02:41:59;1.1;;;0.5;;
26824;SDS011;14402;48.178;11.566;2023-01-15T02:42:29;1.1;;;0.5;;
26824;SDS011;14402;48.178;11.566;2023-01-15T02:42:59;1.2;;;0.6;;
26824;SDS011;14402;48.178;11.566;2023-01-15T02:43:31;1.2;;;0.6;;
26824;SDS011;14402;48.178;11.566;2023-01-15T02:43:59;1.2;;;0.6;;
26824;SDS011;14402;48.178;11.566;2023-01-15T02:44:29;1.2;;;0.6;;
26824;SDS011;14402;48.178;11.566;2023-01-15T02:44:59;1.0;;;0.6;;
26824;SDS011;14402;48.178;11.566;2023-01-15T02:45:30;0.8;;;0.6;;
26824;SDS011;14402;48.178;11.566;2023-01-15T02:45:59;0.8;;;0.6;;
26824;SDS011;14402;48.178;11.566;2023-01-15T02:46:29;0.8;;;0.6;;
26824;SDS011;14402;48.178;11.566;2023-01-15T02:46:59;0.8;;;0.6;;
26824;SDS011;14402;48.178;11.566;2023-01-15T02:47:31;0.8;;;0.6;;
26824;SDS011;14402;48.178;11.566;2023-01-15T02:48:01;0.8;;;0.6;;
26824;SDS011;14402;48.178;11.566;2023-01-15T02:48:30;0.8;;;0.6;;
26824;SDS011;14402;48.178;11.566;2023-01-15T02:48:59;1.0;;;0.6;;
26824;SDS011;14402;48.178;11.566;2023-01-15T02:49:29;1.2;;;0.5;;
26824;SDS011;14402;48.178;11.566;2023-01-15T02:50:00;1.2;;;0.5;;
26824;SDS011;14402;48.178;11.566;2023-01-15T02:50:31;1.2;;;0.5;;
26824;SDS011;14402;48.178;11.566;2023-01-15T02:51:00;1.3;;;0.5;;
26824;SDS011;14402;48.178;11.566;2023-01-15T02:51:30;1.4;;;0.5;;
26824;SDS011;14402;48.178;11.566;2023-01-15T02:52:00;1.4;;;0.5;;
26824;SDS011;14402;48.178;11.566;2023-01-15T02:52:30;1.4;;;0.5;;
26824;SDS011;14402;48.178;11.566;2023-01-15T02:53:00;1.1;;;0.6;;
26824;SDS011;14402;48.178;11.566;2023-01-15T02:53:30;0.9;;;0.6;;
26824;SDS011;14402;48.178;11.566;2023-01-15T02:54:00;0.9;;;0.6;;
26824;SDS011;14402;48.178;11.566;2023-01-15T02:54:31;0.9;;;0.6;;
26824;SDS011;14402;48.178;11.566;2023-01-15T02:55:02;0.9;;;0.6;;
26824;SDS011;14402;48.178;11.566;2023-01-15T02:55:31;1.0;;;0.5;;
26824;SDS011;14402;48.178;11.566;2023-01-15T02:56:01;1.0;;;0.5;;
26824;SDS011;14402;48.178;11.566;2023-01-15T02:56:30;1.0;;;0.5;;
26824;SDS011;14402;48.178;11.566;2023-01-15T02:57:00;0.9;;;0.5;;
26824;SDS011;14402;48.178;11.566;2023-01-15T02:57:31;0.8;;;0.5;;
26824;SDS011;14402;48.178;11.566;2023-01-15T02:58:01;0.8;;;0.5;;
26824;SDS011;14402;48.178;11.566;2023-01-15T02:58:31;0.8;;;0.5;;
26824;SDS011;14402;48.178;11.566;2023-01-15T02:59:02;0.8;;;0.5;;
26824;SDS011;14402;48.178;11.566;2023-01-15T02:59:32;0.8;;;0.5;;
26824;SDS011;14402;48.178;11.566;2023-01-15T03:00:03;0.8;;;0.5;;
26824;SDS011;14402;48.178;11.566;2023-01-15T03:00:32;0.8;;;0.5;;
26824;SDS011;14402;48.178;11.566;2023-01-15T03:01:01;0.9;;;0.5;;
26824;SDS011;14402;48.178;11.566;2023-01-15T03:01:31;0.9;;;0.5;;
26824;SDS011;14402;48.178;11.566;2023-01-15T03:02:02;0.9;;;0.5;;
26824;SDS011;14402;48.178;11.566;2023-01-15T03:02:32;0.9;;;0.5;;
26824;SDS011;14402;48.178;11.566;2023-01-15T03:03:02;0.7;;;0.5;;
26824;SDS011;14402;48.178;11.566;2023-01-15T03:03:33;0.5;;;0.5;;
26824;SDS011;14402;48.178;11.566;2023-01-15T03:04:02;0.5;;;0.5;;
26824;SDS011;14402;48.178;11.566;2023-01-15T03:04:32;0.5;;;0.5;;
26824;SDS011;14402;48.178;11.566;2023-01-15T03:05:02;0.6;;;0.5;;
26824;SDS011;14402;48.178;11.566;2023-01-15T03:05:34;0.7;;;0.5;;
26824;SDS011;14402;48.178;11.566;2023-01-15T03:06:03;0.7;;;0.5;;
26824;SDS011;14402;48.178;11.566;2023-01-15T03:06:32;0.7;;;0.5;;
26824;SDS011;14402;48.178;11.566;2023-01-15T03:07:04;0.8;;;0.5;;
26824;SDS011;14402;48.178;11.566;2023-01-15T03:07:34;0.9;;;0.5;;
26824;SDS011;14402;48.178;11.566;2023-01-15T03:08:02;0.9;;;0.5;;
26824;SDS011;14402;48.178;11.566;2023-01-15T03:08:32;0.9;;;0.5;;
26824;SDS011;14402;48.178;11.566;2023-01-15T03:09:02;0.9;;;0.6;;
26824;SDS011;14402;48.178;11.566;2023-01-15T03:09:32;1.0;;;0.6;;
26824;SDS011;14402;48.178;11.566;2023-01-15T03:10:02;1.0;;;0.6;;
26824;SDS011;14402;48.178;11.566;2023-01-15T03:10:34;1.0;;;0.6;;
26824;SDS011;14402;48.178;11.566;2023-01-15T03:11:03;1.2;;;0.6;;
26824;SDS011;14402;48.178;11.566;2023-01-15T03:11:32;1.4;;;0.6;;
26824;SDS011;14402;48.178;11.566;2023-01-15T03:12:03;1.4;;;0.6;;
26824;SDS011;14402;48.178;11.566;2023-01-15T03:12:34;1.4;;;0.6;;
26824;SDS011;14402;48.178;11.566;2023-01-15T03:13:02;1.8;;;0.6;;
26824;SDS011;14402;48.178;11.566;2023-01-15T03:13:34;2.1;;;0.6;;
26824;SDS011;14402;48.178;11.566;2023-01-15T03:14:03;2.1;;;0.6;;
26824;SDS011;14402;48.178;11.566;2023-01-15T03:14:34;2.1;;;0.6;;
26824;SDS011;14402;48.178;11.566;2023-01-15T03:15:05;1.4;;;0.6;;
26824;SDS011;14402;48.178;11.566;2023-01-15T03:15:37;0.7;;;0.5;;
26824;SDS011;14402;48.178;11.566;2023-01-15T03:16:43;0.7;;;0.5;;
26824;SDS011;14402;48.178;11.566;2023-01-15T03:16:46;0.7;;;0.5;;
26824;SDS011;14402;48.178;11.566;2023-01-15T03:17:34;1.3;;;0.5;;
26824;SDS011;14402;48.178;11.566;2023-01-15T03:18:03;1.3;;;0.5;;
26824;SDS011;14402;48.178;11.566;2023-01-15T03:18:35;1.3;;;0.5;;
26824;SDS011;14402;48.178;11.566;2023-01-15T03:19:05;1.0;;;0.6;;
26824;SDS011;14402;48.178;11.566;2023-01-15T03:19:35;0.7;;;0.6;;
26824;SDS011;14402;48.178;11.566;2023-01-15T03:20:05;0.7;;;0.6;;
26824;SDS011;14402;48.178;11.566;2023-01-15T03:20:33;0.7;;;0.6;;
26824;SDS011;14402;48.178;11.566;2023-01-15T03:21:04;1.1;;;0.5;;
26824;SDS011;14402;48.178;11.566;2023-01-15T03:21:37;1.6;;;0.4;;
26824;SDS011;14402;48.178;11.566;2023-01-15T03:22:04;1.6;;;0.4;;
26824;SDS011;14402;48.178;11.566;2023-01-15T03:22:34;1.6;;;0.4;;
26824;SDS011;14402;48.178;11.566;2023-01-15T03:23:05;1.3;;;0.4;;
26824;SDS011;14402;48.178;11.566;2023-01-15T03:23:34;1.0;;;0.5;;
26824;SDS011;14402;48.178;11.566;2023-01-15T03:24:04;1.0;;;0.5;;
26824;SDS011;14402;48.178;11.566;2023-01-15T03:24:35;1.0;;;0.5;;
26824;SDS011;14402;48.178;11.566;2023-01-15T03:25:04;1.0;;;0.5;;
26824;SDS011;14402;48.178;11.566;2023-01-15T03:25:36;1.0;;;0.5;;
26824;SDS011;14402;48.178;11.566;2023-01-15T03:26:04;1.0;;;0.5;;
26824;SDS011;14402;48.178;11.566;2023-01-15T03:26:34;1.0;;;0.5;;
26824;SDS011;14402;48.178;11.566;2023-01-15T03:27:04;1.0;;;0.5;;
26824;SDS011;14402;48.178;11.566;2023-01-15T03:27:34;1.0;;;0.5;;
26824;SDS011;14402;48.178;11.566;2023-01-15T03:28:04;1.0;;;0.5;;
26824;SDS011;14402;48.178;11.566;2023-01-15T03:28:34;1.0;;;0.5;;
26824;SDS011;14402;48.178;11.566;2023-01-15T03:29:04;1.1;;;0.6;;
26824;SDS011;14402;48.178;11.566;2023-01-15T03:29:36;1.3;;;0.6;;
26824;SDS011;14402;48.178;11.566;2023-01-15T03:30:05;1.3;;;0.6;;
26824;SDS011;14402;48.178;11.566;2023-01-15T03:30:34;1.3;;;0.6;;
26824;SDS011;14402;48.178;11.566;2023-01-15T03:31:04;1.5;;;0.6;;
26824;SDS011;14402;48.178;11.566;2023-01-15T03:31:34;1.7;;;0.6;;
26824;SDS011;14402;48.178;11.566;2023-01-15T03:32:04;1.7;;;0.6;;
26824;SDS011;14402;48.178;11.566;2023-01-15T03:32:34;1.7;;;0.6;;
26824;SDS011;14402;48.178;11.566;2023-01-15T03:33:04;1.4;;;0.6;;
26824;SDS011;14402;48.178;11.566;2023-01-15T03:33:34;1.0;;;0.6;;
26824;SDS011;14402;48.178;11.566;2023-01-15T03:34:05;1.0;;;0.6;;
26824;SDS011;14402;48.178;11.566;2023-01-15T03:34:37;1.0;;;0.6;;
26824;SDS011;14402;48.178;11.566;2023-01-15T03:35:05;1.1;;;0.6;;
26824;SDS011;14402;48.178;11.566;2023-01-15T03:35:39;1.2;;;0.5;;
26824;SDS011;14402;48.178;11.566;2023-01-15T03:36:05;1.2;;;0.5;;
26824;SDS011;14402;48.178;11.566;2023-01-15T03:36:35;1.2;;;0.5;;
26824;SDS011;14402;48.178;11.566;2023-01-15T03:37:05;1.1;;;0.6;;
26824;SDS011;14402;48.178;11.566;2023-01-15T03:37:35;1.0;;;0.6;;
26824;SDS011;14402;48.178;11.566;2023-01-15T03:38:05;1.0;;;0.6;;
26824;SDS011;14402;48.178;11.566;2023-01-15T03:38:36;1.0;;;0.6;;
26824;SDS011;14402;48.178;11.566;2023-01-15T03:39:05;1.1;;;0.6;;
26824;SDS011;14402;48.178;11.566;2023-01-15T03:39:35;1.2;;;0.5;;
26824;SDS011;14402;48.178;11.566;2023-01-15T03:40:06;1.2;;;0.5;;
26824;SDS011;14402;48.178;11.566;2023-01-15T03:40:36;1.2;;;0.5;;
26824;SDS011;14402;48.178;11.566;2023-01-15T03:41:10;1.5;;;0.6;;
26824;SDS011;14402;48.178;11.566;2023-01-15T03:41:39;1.7;;;0.6;;
26824;SDS011;14402;48.178;11.566;2023-01-15T03:42:09;1.7;;;0.6;;
26824;SDS011;14402;48.178;11.566;2023-01-15T03:42:39;1.7;;;0.6;;
26824;SDS011;14402;48.178;11.566;2023-01-15T03:43:07;1.3;;;0.6;;
26824;SDS011;14402;48.178;11.566;2023-01-15T03:43:40;0.9;;;0.5;;
26824;SDS011;14402;48.178;11.566;2023-01-15T03:44:07;0.9;;;0.5;;
26824;SDS011;14402;48.178;11.566;2023-01-15T03:44:37;0.9;;;0.5;;
26824;SDS011;14402;48.178;11.566;2023-01-15T03:45:08;0.7;;;0.4;;
26824;SDS011;14402;48.178;11.566;2023-01-15T03:45:36;0.5;;;0.4;;
26824;SDS011;14402;48.178;11.566;2023-01-15T03:46:07;0.5;;;0.4;;
26824;SDS011;14402;48.178;11.566;2023-01-15T03:46:38;0.5;;;0.4;;
26824;SDS011;14402;48.178;11.566;2023-01-15T03:47:09;0.6;;;0.4;;
26824;SDS011;14402;48.178;11.566;2023-01-15T03:47:39;0.6;;;0.5;;
26824;SDS011;14402;48.178;11.566;2023-01-15T03:48:08;0.6;;;0.5;;
26824;SDS011;14402;48.178;11.566;2023-01-15T03:48:37;0.6;;;0.5;;
26824;SDS011;14402;48.178;11.566;2023-01-15T03:49:08;0.7;;;0.6;;
26824;SDS011;14402;48.178;11.566;2023-01-15T03:49:38;0.8;;;0.6;;
26824;SDS011;14402;48.178;11.566;2023-01-15T03:50:08;0.8;;;0.6;;
26824;SDS011;14402;48.178;11.566;2023-01-15T03:50:38;0.8;;;0.6;;
26824;SDS011;14402;48.178;11.566;2023-01-15T03:51:07;0.9;;;0.6;;
26824;SDS011;14402;48.178;11.566;2023-01-15T03:51:37;1.0;;;0.5;;
26824;SDS011;14402;48.178;11.566;2023-01-15T03:52:09;1.0;;;0.5;;
26824;SDS011;14402;48.178;11.566;2023-01-15T03:52:38;1.0;;;0.5;;
26824;SDS011;14402;48.178;11.566;2023-01-15T03:53:08;0.8;;;0.5;;
26824;SDS011;14402;48.178;11.566;2023-01-15T03:53:38;0.6;;;0.5;;
26824;SDS011;14402;48.178;11.566;2023-01-15T03:54:08;0.6;;;0.5;;
26824;SDS011;14402;48.178;11.566;2023-01-15T03:54:39;0.6;;;0.5;;
26824;SDS011;14402;48.178;11.566;2023-01-15T03:55:09;1.0;;;0.6;;
26824;SDS011;14402;48.178;11.566;2023-01-15T03:55:38;1.5;;;0.6;;
26824;SDS011;14402;48.178;11.566;2023-01-15T03:56:07;1.5;;;0.6;;
26824;SDS011;14402;48.178;11.566;2023-01-15T03:56:40;1.5;;;0.6;;
26824;SDS011;14402;48.178;11.566;2023-01-15T03:57:09;1.3;;;0.6;;
26824;SDS011;14402;48.178;11.566;2023-01-15T03:57:38;1.1;;;0.6;;
26824;SDS011;14402;48.178;11.566;2023-01-15T03:58:08;1.1;;;0.6;;
26824;SDS011;14402;48.178;11.566;2023-01-15T03:58:38;1.1;;;0.6;;
26824;SDS011;14402;48.178;11.566;2023-01-15T03:59:08;1.1;;;0.6;;
26824;SDS011;14402;48.178;11.566;2023-01-15T03:59:38;1.1;;;0.6;;
26824;SDS011;14402;48.178;11.566;2023-01-15T04:00:08;1.1;;;0.6;;
26824;SDS011;14402;48.178;11.566;2023-01-15T04:00:39;1.1;;;0.6;;
26824;SDS011;14402;48.178;11.566;2023-01-15T04:01:08;2.2;;;0.6;;
26824;SDS011;14402;48.178;11.566;2023-01-15T04:01:38;3.2;;;0.6;;
26824;SDS011;14402;48.178;11.566;2023-01-15T04:02:08;3.2;;;0.6;;
26824;SDS011;14402;48.178;11.566;2023-01-15T04:02:38;3.2;;;0.6;;
26824;SDS011;14402;48.178;11.566;2023-01-15T04:03:08;2.0;;;0.5;;
26824;SDS011;14402;48.178;11.566;2023-01-15T04:03:38;0.7;;;0.4;;
26824;SDS011;14402;48.178;11.566;2023-01-15T04:04:08;0.7;;;0.4;;
26824;SDS011;14402;48.178;11.566;2023-01-15T04:04:38;0.7;;;0.4;;
26824;SDS011;14402;48.178;11.566;2023-01-15T04:05:08;0.9;;;0.4;;
26824;SDS011;14402;48.178;11.566;2023-01-15T04:05:38;1.1;;;0.4;;
26824;SDS011;14402;48.178;11.566;2023-01-15T04:06:08;1.1;;;0.4;;
26824;SDS011;14402;48.178;11.566;2023-01-15T04:06:38;1.1;;;0.4;;
26824;SDS011;14402;48.178;11.566;2023-01-15T04:07:08;0.9;;;0.4;;
26824;SDS011;14402;48.178;11.566;2023-01-15T04:07:38;0.6;;;0.4;;
26824;SDS011;14402;48.178;11.566;2023-01-15T04:08:08;0.6;;;0.4;;
26824;SDS011;14402;48.178;11.566;2023-01-15T04:08:39;0.6;;;0.4;;
26824;SDS011;14402;48.178;11.566;2023-01-15T04:09:09;0.7;;;0.4;;
26824;SDS011;14402;48.178;11.566;2023-01-15T04:09:39;0.8;;;0.4;;
26824;SDS011;14402;48.178;11.566;2023-01-15T04:10:09;0.8;;;0.4;;
26824;SDS011;14402;48.178;11.566;2023-01-15T04:10:49;0.8;;;0.4;;
26824;SDS011;14402;48.178;11.566;2023-01-15T04:11:09;0.8;;;0.4;;
26824;SDS011;14402;48.178;11.566;2023-01-15T04:11:39;0.8;;;0.5;;
26824;SDS011;14402;48.178;11.566;2023-01-15T04:12:09;0.8;;;0.5;;
26824;SDS011;14402;48.178;11.566;2023-01-15T04:12:39;0.8;;;0.5;;
26824;SDS011;14402;48.178;11.566;2023-01-15T04:13:09;0.8;;;0.5;;
26824;SDS011;14402;48.178;11.566;2023-01-15T04:13:39;0.8;;;0.5;;
26824;SDS011;14402;48.178;11.566;2023-01-15T04:14:09;0.8;;;0.5;;
26824;SDS011;14402;48.178;11.566;2023-01-15T04:14:39;0.8;;;0.5;;